Flight Information

DEPARTURE
SACRAMENTO, CA
Elevation:
23
Runways:
12/30 - 3837x100 - ASPH-G
2/20 - 5503x150 - ASPH-G
H1 - 60x60 - ASPH-G
Active PE Departure:
12 - 20
Current PE ATIS:
T
Altimeter:
29.92
Remarks:
ATIS:
125.5 916-428-7066
Ground:
125
Tower:
EXECUTIVE TOWER 119.5
DESTINATION
,
Elevation:
TPA:
1000 (est.)


6847.4 NM69° True-16° Var53° HDG

Flight Plan:
(click to file on line)

1. Type
2. Aircraft Identification
3. Aircraft Type / Special Equipment
4. True Airspeed
kts
5. Departure Airport
(ICAO code)
6. Arriving Airport
(ICAO code)
7. Cruising Altitude
ft
8. Alternate Airport
(ICAO code)
9. Route of Flight
10. Remarks


00:00:00 Departure ATIS: Destination ATIS:

Clearance Limit:
Route:
Altitude: Expect in minutes
Frequency:
Transponder: (7500 Hijack / 7600 Lost Comms / 7700 Emergency)


KSAC 110353Z 21008KT 10SM CLR 16/04 A2992 RMK AO2 SLP130 T01610039
Time: 2021-04-11T03:53:00Z
1618116263
Winds: 210 @ 8 kts
Visibility: 10.0 sm
Clouds (AGL): CLR
Temperature: 16.1 C
Dew Point: 3.9 C
Pressure: 29.920275 in Hgbr


Notes:

Data extracted from FAA Digital Chart Supplement. Effective: 0901Z Thursday, Feb 25, 2021 to 0901Z Thursday, APR 22, 2021
Current ATIS data is provided courtisy of PilotEdge.